weather June 13, 2001 (JST)

2001/06/12 21:00 UTC

CYVP 122100Z 13006KT 15SM -SHRA FEW010 SCT025 OVC060 15/12 A2941 RMK SF2SC2AC4 SLP960

2001/06/12 18:50 UTC

BGBW 121850Z 26004KT 230V290 9999 BKN035 BKN050 11/M01 Q1021


Terminal Aerodrome Forecast

2001/06/10 11:35 UTC

CYVP 101135Z 101120 35005KT P6SM OVC006
      BECMG 1315 04007KT FEW020 BKN120 BKN220 RMK
      NXT FCST BY 14Z

BGBW

The most recent Terminal Aerodrome Forecast from BGBW in our system was generated at the source at:

2001/06/10 11:58 UTC
BGBW 101158Z 101220 26010KT 9999 FEW010 BKN040 TEMPO 1220 -RA BKN010



@

Greenland

@

Place Temperature Humidity Pressure Conditions Updated Favorites
Aasiaat 7 C 77% 1022 hPa Partly Cloudy 04:00 PM WGST
Angisoq 4 C 83% 1022 hPa Unknown 04:00 PM WGST
Aputiteeq 1 C 73% 1024 hPa Unknown 04:00 PM WGST
Daneborg 1 C 81% 1026 hPa Unknown 04:00 PM WGST
Danmarkshavn 2 C 64% 1025 hPa Partly Cloudy 04:00 PM WGST
Hall Land - N/A 1022 hPa Unknown 04:00 PM WGST
Henrik Kroeyer Holme -2 C N/A 1026 hPa Unknown 04:00 PM WGST
Ikermiit 6 C 87% 1023 hPa Unknown 04:00 PM WGST
Ikermiuarsuk 6 C 89% 1022 hPa Unknown 04:00 PM WGST
Illoqqortoormiut 2 C 81% 1025 hPa Partly Cloudy 06:00 PM EGST
Ilulissat 9 C 66% 1022 hPa Scattered Clouds 05:50 PM WGST
Kangerlussuaq 14 C 67% 1020 hPa Mostly Cloudy 07:50 PM WGST
Kap Morris Jesup -2 C 86% 1024 hPa Unknown 04:00 PM WGST
Kitsissorsuit -0 C 97% 1023 hPa Unknown 04:00 PM WGST
Kitsissut -2 C 96% 1025 hPa Unknown 03:00 PM ADT
Kitsissut 3 C 95% 1022 hPa Unknown 04:00 PM WGST
Kulusuk 4 C 87% 1023 hPa Fog 01:50 PM WGST
Narsarsuaq 11 C 44% - Mostly Cloudy 04:50 PM WGST
Narsarsuaq 11 C 44% - Mostly Cloudy 04:50 PM WGST
Nerlerit Inaat 5 C 100% 1024 hPa Scattered Clouds 12:50 PM EGST
Nunarsuit 4 C 85% 1022 hPa Unknown 04:00 PM WGST
Nuuk 11 C 82% 1020 hPa Mostly Cloudy 06:50 PM WGST
Nuussuaataa 1 C 94% 1023 hPa Unknown 04:00 PM WGST
Paamiut 8 C 70% 1021 hPa Mostly Cloudy 04:00 PM WGST
Pituffik -2 C 100% 1024 hPa Unknown 06:55 PM ADT
Prins Christian Sund 6 C 92% 1022 hPa Partly Cloudy 04:00 PM WGST
Qaanaaq 2 C 74% 1024 hPa Unknown 03:00 PM ADT
Qaqortoq 8 C 95% 1022 hPa Overcast 04:00 PM WGST
Sioralik 7 C 86% 1023 hPa Unknown 04:00 PM WGST
Sisimiut 6 C 88% 1022 hPa Mostly Cloudy 04:00 PM WGST
Station Nord -4 C 85% 1027 hPa Unknown 04:00 PM WGST
Station Nord -4 C 85% 1027 hPa Overcast 04:00 PM WGST
Summit -10 C 72% - Unknown 04:00 PM WGST
Tasiilaq 4 C 94% 1023 hPa Partly Cloudy 04:00 PM WGST
Ukiivik 9 C 76% 1022 hPa Unknown 04:00 PM WGST
Upernavik 1 C 78% 1023 hPa Unknown 04:00 PM WGST
Ads by TOK2